Time;durP1;ratioP1;P1;durP2;ratioP2;P2;SDS_P1;SDS_P2;PMS_P1;PMS_P2;Temp;Humidity;BMP_temperature;BMP_pressure;BME280_temperature;BME280_humidity;BME280_pressure;Samples;Min_cycle;Max_cycle;Signal;HPM_P1;HPM_P2
2023/09/07 00:01:20;;;;;;;1999.90;999.90;;;;;;;;;;5076128;28;20052;-89
2023/09/07 00:03:47;;;;;;;1999.90;999.90;;;;;;;;;;5076663;28;20048;-88
2023/09/07 00:06:13;;;;;;;1999.90;999.90;;;;;;;;;;5076206;28;20131;-88
2023/09/07 00:08:40;;;;;;;1999.90;999.90;;;;;;;;;;5076295;28;20045;-88
2023/09/07 00:11:07;;;;;;;1999.90;999.90;;;;;;;;;;5076478;28;20121;-88
2023/09/07 00:13:38;;;;;;;1999.90;999.90;;;;;;;;;;5076463;28;20400;-88
2023/09/07 00:16:05;;;;;;;1999.90;999.90;;;;;;;;;;5076022;28;20396;-88
2023/09/07 00:18:34;;;;;;;1999.90;999.90;;;;;;;;;;5075859;28;20377;-86
2023/09/07 00:21:01;;;;;;;1999.90;999.90;;;;;;;;;;5076195;28;20048;-88
2023/09/07 00:23:28;;;;;;;1999.90;999.90;;;;;;;;;;5075668;28;20053;-88
2023/09/07 00:25:54;;;;;;;1999.90;999.90;;;;;;;;;;5071279;28;20049;-89
2023/09/07 00:28:51;;;;;;;1999.90;999.90;;;;;;;;;;5055715;28;20144;-88
2023/09/07 00:31:17;;;;;;;1999.90;999.90;;;;;;;;;;5055810;28;20055;-88
2023/09/07 00:33:45;;;;;;;1999.90;999.90;;;;;;;;;;5055710;28;20052;-90
2023/09/07 00:36:12;;;;;;;1999.90;999.90;;;;;;;;;;5055732;28;20057;-88
2023/09/07 00:38:38;;;;;;;1999.90;999.90;;;;;;;;;;5055772;28;20051;-88
2023/09/07 00:41:05;;;;;;;1999.90;999.90;;;;;;;;;;5055587;28;20045;-87
2023/09/07 00:43:31;;;;;;;1999.90;999.90;;;;;;;;;;5055058;28;20045;-89
2023/09/07 00:45:58;;;;;;;1999.90;999.90;;;;;;;;;;5055034;28;20055;-88
2023/09/07 00:48:33;;;;;;;1999.90;999.90;;;;;;;;;;5055304;28;20041;-88
2023/09/07 00:54:24;;;;;;;1999.90;999.90;;;;;;;;;;5055254;28;20044;-88
2023/09/07 00:56:51;;;;;;;1999.90;999.90;;;;;;;;;;5054906;28;20123;-87
2023/09/07 00:59:17;;;;;;;1999.90;999.90;;;;;;;;;;5054974;28;20408;-88
2023/09/07 01:01:44;;;;;;;1999.90;999.90;;;;;;;;;;5071854;22;20087;-80
2023/09/07 01:04:11;;;;;;;1999.90;999.90;;;;;;;;;;5081231;28;20040;-80
2023/09/07 01:06:40;;;;;;;1999.90;999.90;;;;;;;;;;5083675;28;20056;-80
2023/09/07 01:09:12;;;;;;;1999.90;999.90;;;;;;;;;;5080563;28;20048;-80
2023/09/07 01:11:40;;;;;;;1999.90;999.90;;;;;;;;;;5083060;28;20085;-81
2023/09/07 01:14:07;;;;;;;1999.90;999.90;;;;;;;;;;5082022;28;20048;-81
2023/09/07 01:16:34;;;;;;;1999.90;999.90;;;;;;;;;;5081282;28;20051;-81
2023/09/07 01:19:01;;;;;;;1999.90;999.90;;;;;;;;;;5076939;28;20572;-80
2023/09/07 01:21:28;;;;;;;1999.90;999.90;;;;;;;;;;5075888;28;20468;-80
2023/09/07 01:23:57;;;;;;;1999.90;999.90;;;;;;;;;;5081159;28;20051;-80
2023/09/07 01:26:23;;;;;;;1999.90;999.90;;;;;;;;;;5078519;28;20044;-83
2023/09/07 01:28:50;;;;;;;1999.90;999.90;;;;;;;;;;5076369;28;20051;-80
2023/09/07 01:31:17;;;;;;;1999.90;999.90;;;;;;;;;;5081004;28;20468;-80
2023/09/07 01:33:44;;;;;;;1999.90;999.90;;;;;;;;;;5078774;28;20052;-80
2023/09/07 01:36:11;;;;;;;1999.90;999.90;;;;;;;;;;5080411;28;20520;-80
2023/09/07 01:38:37;;;;;;;1999.90;999.90;;;;;;;;;;5074644;28;20090;-80
2023/09/07 01:41:05;;;;;;;1999.90;999.90;;;;;;;;;;5079871;28;20816;-80
2023/09/07 01:43:32;;;;;;;1999.90;999.90;;;;;;;;;;5080277;28;20040;-81
2023/09/07 01:45:58;;;;;;;1999.90;999.90;;;;;;;;;;5079830;28;20422;-80
2023/09/07 01:48:25;;;;;;;1999.90;999.90;;;;;;;;;;5079566;28;20047;-79
2023/09/07 01:50:53;;;;;;;1999.90;999.90;;;;;;;;;;5075087;28;20358;-81
2023/09/07 01:53:19;;;;;;;1999.90;999.90;;;;;;;;;;5081320;28;20048;-80
2023/09/07 01:55:47;;;;;;;1999.90;999.90;;;;;;;;;;5080556;28;20050;-80
2023/09/07 01:58:15;;;;;;;1999.90;999.90;;;;;;;;;;5076425;28;20953;-80
2023/09/07 02:00:41;;;;;;;1999.90;999.90;;;;;;;;;;5077244;28;20047;-80
2023/09/07 02:03:08;;;;;;;1999.90;999.90;;;;;;;;;;5080546;28;20502;-80
2023/09/07 02:05:35;;;;;;;1999.90;999.90;;;;;;;;;;5077409;28;20041;-80
2023/09/07 02:08:01;;;;;;;1999.90;999.90;;;;;;;;;;5071288;28;20078;-80
2023/09/07 02:10:28;;;;;;;1999.90;999.90;;;;;;;;;;5079261;28;20056;-80
2023/09/07 02:12:56;;;;;;;1999.90;999.90;;;;;;;;;;5077876;28;20055;-80
2023/09/07 02:15:24;;;;;;;1999.90;999.90;;;;;;;;;;5078013;28;20110;-81
2023/09/07 02:17:52;;;;;;;1999.90;999.90;;;;;;;;;;5078530;28;20416;-80
2023/09/07 02:20:20;;;;;;;1999.90;999.90;;;;;;;;;;5078178;28;20123;-80
2023/09/07 02:22:46;;;;;;;1999.90;999.90;;;;;;;;;;5081470;28;20492;-80
2023/09/07 02:25:13;;;;;;;1999.90;999.90;;;;;;;;;;5078153;28;20048;-80
2023/09/07 02:27:39;;;;;;;1999.90;999.90;;;;;;;;;;5077828;28;20409;-80
2023/09/07 02:30:07;;;;;;;1999.90;999.90;;;;;;;;;;5079030;28;20044;-79
2023/09/07 02:32:35;;;;;;;1999.90;999.90;;;;;;;;;;5081760;28;20585;-79
2023/09/07 02:35:01;;;;;;;1999.90;999.90;;;;;;;;;;5078275;28;20059;-80
2023/09/07 02:37:28;;;;;;;1999.90;999.90;;;;;;;;;;5078746;28;20162;-80
2023/09/07 02:39:54;;;;;;;1999.90;999.90;;;;;;;;;;5079389;28;20044;-79
2023/09/07 02:42:21;;;;;;;1999.90;999.90;;;;;;;;;;5083215;28;20401;-80
2023/09/07 02:44:48;;;;;;;1999.90;999.90;;;;;;;;;;5082387;28;20040;-81
2023/09/07 02:47:14;;;;;;;1999.90;999.90;;;;;;;;;;5077740;28;20044;-80
2023/09/07 02:49:42;;;;;;;1999.90;999.90;;;;;;;;;;5083666;28;20148;-80
2023/09/07 02:52:14;;;;;;;1999.90;999.90;;;;;;;;;;5083344;28;20051;-80
2023/09/07 02:54:41;;;;;;;1999.90;999.90;;;;;;;;;;5083271;28;20051;-80
2023/09/07 02:57:08;;;;;;;1999.90;999.90;;;;;;;;;;5082500;28;20052;-80
2023/09/07 02:59:34;;;;;;;1999.90;999.90;;;;;;;;;;5084690;28;20048;-80
2023/09/07 03:02:01;;;;;;;1999.90;999.90;;;;;;;;;;5080312;28;20505;-80
2023/09/07 03:04:27;;;;;;;1999.90;999.90;;;;;;;;;;5080494;28;20048;-80
2023/09/07 03:06:55;;;;;;;1999.90;999.90;;;;;;;;;;5083289;28;20063;-80
2023/09/07 03:09:22;;;;;;;1999.90;999.90;;;;;;;;;;5084807;28;20610;-80
2023/09/07 03:11:48;;;;;;;1999.90;999.90;;;;;;;;;;5082357;28;20047;-80
2023/09/07 03:14:15;;;;;;;1999.90;999.90;;;;;;;;;;5081133;28;20048;-81
2023/09/07 03:16:41;;;;;;;1999.90;999.90;;;;;;;;;;5079903;28;20053;-80
2023/09/07 03:19:08;;;;;;;1999.90;999.90;;;;;;;;;;5079716;28;20527;-80
2023/09/07 03:21:34;;;;;;;1999.90;999.90;;;;;;;;;;5081605;28;20489;-80
2023/09/07 03:24:02;;;;;;;1999.90;999.90;;;;;;;;;;5084445;28;20158;-81
2023/09/07 03:26:29;;;;;;;1999.90;999.90;;;;;;;;;;5081046;28;20496;-80
2023/09/07 03:28:57;;;;;;;1999.90;999.90;;;;;;;;;;5079821;28;20049;-80
2023/09/07 03:31:23;;;;;;;1999.90;999.90;;;;;;;;;;5080389;28;20044;-80
2023/09/07 03:33:50;;;;;;;1999.90;999.90;;;;;;;;;;5078255;28;20059;-81
2023/09/07 03:36:16;;;;;;;1999.90;999.90;;;;;;;;;;5085459;28;20048;-80
2023/09/07 03:38:44;;;;;;;1999.90;999.90;;;;;;;;;;5076518;28;20048;-80
2023/09/07 03:41:12;;;;;;;1999.90;999.90;;;;;;;;;;5083022;28;20044;-80
2023/09/07 03:43:38;;;;;;;1999.90;999.90;;;;;;;;;;5083746;28;20461;-80
2023/09/07 03:46:05;;;;;;;1999.90;999.90;;;;;;;;;;5080984;28;20048;-80
2023/09/07 03:48:31;;;;;;;1999.90;999.90;;;;;;;;;;5082176;28;20417;-80
2023/09/07 03:50:58;;;;;;;1999.90;999.90;;;;;;;;;;5083289;28;20059;-80
2023/09/07 03:53:25;;;;;;;1999.90;999.90;;;;;;;;;;5082006;28;20357;-80
2023/09/07 03:55:51;;;;;;;1999.90;999.90;;;;;;;;;;5078541;28;20056;-81
2023/09/07 03:58:19;;;;;;;1999.90;999.90;;;;;;;;;;5079413;28;20045;-81
2023/09/07 04:00:45;;;;;;;1999.90;999.90;;;;;;;;;;5083016;28;20058;-80
2023/09/07 04:03:12;;;;;;;1999.90;999.90;;;;;;;;;;5078645;28;20061;-81
2023/09/07 04:05:39;;;;;;;1999.90;999.90;;;;;;;;;;5082097;28;20059;-81
2023/09/07 04:08:06;;;;;;;1999.90;999.90;;;;;;;;;;5081650;28;20052;-81
2023/09/07 04:10:32;;;;;;;1999.90;999.90;;;;;;;;;;5080201;28;20056;-81
2023/09/07 04:12:59;;;;;;;1999.90;999.90;;;;;;;;;;5080909;28;20052;-81
2023/09/07 04:15:27;;;;;;;1999.90;999.90;;;;;;;;;;5081646;28;20049;-81
2023/09/07 04:17:54;;;;;;;1999.90;999.90;;;;;;;;;;5078326;28;20068;-82
2023/09/07 04:20:21;;;;;;;1999.90;999.90;;;;;;;;;;5077999;28;20072;-80
2023/09/07 04:22:47;;;;;;;1999.90;999.90;;;;;;;;;;5083251;28;20048;-80
2023/09/07 04:25:14;;;;;;;1999.90;999.90;;;;;;;;;;5075378;28;20044;-82
2023/09/07 04:27:40;;;;;;;1999.90;999.90;;;;;;;;;;5080827;28;20044;-81
2023/09/07 04:30:08;;;;;;;1999.90;999.90;;;;;;;;;;5081451;28;20060;-81
2023/09/07 04:32:36;;;;;;;1999.90;999.90;;;;;;;;;;5078587;28;20074;-82
2023/09/07 04:35:03;;;;;;;1999.90;999.90;;;;;;;;;;5081843;28;20048;-81
2023/09/07 04:37:29;;;;;;;1999.90;999.90;;;;;;;;;;5080704;28;20058;-81
2023/09/07 04:39:56;;;;;;;1999.90;999.90;;;;;;;;;;5079092;28;20041;-82
2023/09/07 04:42:22;;;;;;;1999.90;999.90;;;;;;;;;;5080664;28;20055;-82
2023/09/07 04:44:49;;;;;;;1999.90;999.90;;;;;;;;;;5082238;28;20489;-81
2023/09/07 04:47:16;;;;;;;1999.90;999.90;;;;;;;;;;5077680;28;20055;-81
2023/09/07 04:49:49;;;;;;;1999.90;999.90;;;;;;;;;;5082843;28;20100;-82
2023/09/07 04:52:16;;;;;;;1999.90;999.90;;;;;;;;;;5081512;28;20462;-81
2023/09/07 04:54:43;;;;;;;1999.90;999.90;;;;;;;;;;5079463;28;20053;-83
2023/09/07 04:57:10;;;;;;;1999.90;999.90;;;;;;;;;;5080228;28;20044;-81
2023/09/07 04:59:36;;;;;;;1999.90;999.90;;;;;;;;;;5080338;28;20416;-81
2023/09/07 05:02:04;;;;;;;1999.90;999.90;;;;;;;;;;5076199;28;20136;-82
2023/09/07 05:04:31;;;;;;;1999.90;999.90;;;;;;;;;;5079490;28;20051;-81
2023/09/07 05:06:59;;;;;;;1999.90;999.90;;;;;;;;;;5077015;28;20417;-80
2023/09/07 05:09:25;;;;;;;1999.90;999.90;;;;;;;;;;5080460;28;20052;-81
2023/09/07 05:11:52;;;;;;;1999.90;999.90;;;;;;;;;;5082253;28;20138;-81
2023/09/07 05:14:18;;;;;;;1999.90;999.90;;;;;;;;;;5081880;28;20075;-81
2023/09/07 05:16:45;;;;;;;1999.90;999.90;;;;;;;;;;5078743;28;20055;-81
2023/09/07 05:19:11;;;;;;;1999.90;999.90;;;;;;;;;;5078555;28;20532;-81
2023/09/07 05:21:43;;;;;;;1999.90;999.90;;;;;;;;;;5077821;28;20048;-80
2023/09/07 05:24:14;;;;;;;1999.90;999.90;;;;;;;;;;5081004;28;20050;-79
2023/09/07 05:26:41;;;;;;;1999.90;999.90;;;;;;;;;;5081587;28;20054;-79
2023/09/07 05:29:07;;;;;;;1999.90;999.90;;;;;;;;;;5081230;28;20055;-78
2023/09/07 05:31:33;;;;;;;1999.90;999.90;;;;;;;;;;5079423;28;20391;-78
2023/09/07 05:34:00;;;;;;;1999.90;999.90;;;;;;;;;;5077712;28;20055;-80
2023/09/07 05:36:28;;;;;;;1999.90;999.90;;;;;;;;;;5079239;28;20048;-78
2023/09/07 05:38:54;;;;;;;1999.90;999.90;;;;;;;;;;5078191;28;20488;-79
2023/09/07 05:41:22;;;;;;;1999.90;999.90;;;;;;;;;;5081314;28;20052;-80
2023/09/07 05:43:49;;;;;;;1999.90;999.90;;;;;;;;;;5080038;28;20051;-78
2023/09/07 05:46:15;;;;;;;1999.90;999.90;;;;;;;;;;5081510;28;20055;-79
2023/09/07 05:48:41;;;;;;;1999.90;999.90;;;;;;;;;;5079112;28;20518;-78
2023/09/07 05:51:08;;;;;;;1999.90;999.90;;;;;;;;;;5078358;28;20052;-80
2023/09/07 05:53:35;;;;;;;1999.90;999.90;;;;;;;;;;5080019;28;20473;-79
2023/09/07 05:56:01;;;;;;;1999.90;999.90;;;;;;;;;;5079145;28;20054;-79
2023/09/07 05:58:29;;;;;;;1999.90;999.90;;;;;;;;;;5079320;28;20052;-78
2023/09/07 06:00:56;;;;;;;1999.90;999.90;;;;;;;;;;5081681;28;20062;-81
2023/09/07 06:03:22;;;;;;;1999.90;999.90;;;;;;;;;;5080418;28;20518;-79
2023/09/07 06:05:49;;;;;;;1999.90;999.90;;;;;;;;;;5075011;28;20407;-79
2023/09/07 06:08:15;;;;;;;1999.90;999.90;;;;;;;;;;5078163;28;20052;-80
2023/09/07 06:10:42;;;;;;;1999.90;999.90;;;;;;;;;;5077477;28;20048;-80
2023/09/07 06:13:08;;;;;;;1999.90;999.90;;;;;;;;;;5079208;28;20053;-78
2023/09/07 06:15:36;;;;;;;1999.90;999.90;;;;;;;;;;5079418;28;20511;-80
2023/09/07 06:18:03;;;;;;;1999.90;999.90;;;;;;;;;;5082981;28;20052;-78
2023/09/07 06:20:30;;;;;;;1999.90;999.90;;;;;;;;;;5084254;28;20048;-78
2023/09/07 06:22:56;;;;;;;1999.90;999.90;;;;;;;;;;5088007;28;20055;-80
2023/09/07 06:25:23;;;;;;;1999.90;999.90;;;;;;;;;;5081515;28;20400;-79
2023/09/07 06:27:49;;;;;;;1999.90;999.90;;;;;;;;;;5085279;28;20122;-79
2023/09/07 06:30:16;;;;;;;1999.90;999.90;;;;;;;;;;5083626;28;20059;-79
2023/09/07 06:32:44;;;;;;;1999.90;999.90;;;;;;;;;;5081234;28;20054;-80
2023/09/07 06:35:11;;;;;;;1999.90;999.90;;;;;;;;;;5079769;28;20048;-79
2023/09/07 06:37:40;;;;;;;1999.90;999.90;;;;;;;;;;5084083;28;20055;-80
2023/09/07 06:40:08;;;;;;;1999.90;999.90;;;;;;;;;;5087053;28;20051;-80
2023/09/07 06:42:34;;;;;;;1999.90;999.90;;;;;;;;;;5083336;28;20511;-80
2023/09/07 06:45:01;;;;;;;1999.90;999.90;;;;;;;;;;5083540;28;20040;-80
2023/09/07 06:47:27;;;;;;;1999.90;999.90;;;;;;;;;;5083026;28;20484;-78
2023/09/07 06:49:55;;;;;;;1999.90;999.90;;;;;;;;;;5083158;28;20048;-79
2023/09/07 06:52:22;;;;;;;1999.90;999.90;;;;;;;;;;5083615;28;20058;-80
2023/09/07 06:54:52;;;;;;;1999.90;999.90;;;;;;;;;;5085510;28;20048;-80
2023/09/07 06:57:18;;;;;;;1999.90;999.90;;;;;;;;;;5084656;28;20519;-80
2023/09/07 06:59:45;;;;;;;1999.90;999.90;;;;;;;;;;5079806;28;20040;-79
2023/09/07 07:02:11;;;;;;;1999.90;999.90;;;;;;;;;;5079203;28;20063;-80
2023/09/07 07:04:38;;;;;;;1999.90;999.90;;;;;;;;;;5081563;28;20071;-80
2023/09/07 07:07:06;;;;;;;1999.90;999.90;;;;;;;;;;5082322;28;20041;-80
2023/09/07 07:09:33;;;;;;;1999.90;999.90;;;;;;;;;;5087000;28;20145;-81
2023/09/07 07:12:01;;;;;;;1999.90;999.90;;;;;;;;;;5084293;28;20144;-81
2023/09/07 07:14:27;;;;;;;1999.90;999.90;;;;;;;;;;5082367;28;20102;-79
2023/09/07 07:16:54;;;;;;;1999.90;999.90;;;;;;;;;;5083306;28;20523;-80
2023/09/07 07:19:20;;;;;;;1999.90;999.90;;;;;;;;;;5080403;28;20040;-80
2023/09/07 07:21:47;;;;;;;1999.90;999.90;;;;;;;;;;5083069;28;20051;-80
2023/09/07 07:24:15;;;;;;;1999.90;999.90;;;;;;;;;;5082586;28;20123;-79
2023/09/07 07:26:41;;;;;;;1999.90;999.90;;;;;;;;;;5080976;28;20489;-81
2023/09/07 07:29:08;;;;;;;1999.90;999.90;;;;;;;;;;5084205;28;20055;-78
2023/09/07 07:31:34;;;;;;;1999.90;999.90;;;;;;;;;;5084288;28;20422;-79
2023/09/07 07:34:01;;;;;;;1999.90;999.90;;;;;;;;;;5083770;28;20040;-79
2023/09/07 07:36:27;;;;;;;1999.90;999.90;;;;;;;;;;5077889;28;20055;-79
2023/09/07 07:38:54;;;;;;;1999.90;999.90;;;;;;;;;;5081383;28;20044;-79
2023/09/07 07:41:22;;;;;;;1999.90;999.90;;;;;;;;;;5085481;28;20049;-78
2023/09/07 07:43:48;;;;;;;1999.90;999.90;;;;;;;;;;5085039;28;20056;-79
2023/09/07 07:46:16;;;;;;;1999.90;999.90;;;;;;;;;;5081001;28;20504;-80
2023/09/07 07:48:43;;;;;;;1999.90;999.90;;;;;;;;;;5080883;28;20507;-80
2023/09/07 07:51:09;;;;;;;1999.90;999.90;;;;;;;;;;5084962;28;20044;-79
2023/09/07 07:53:36;;;;;;;1999.90;999.90;;;;;;;;;;5081800;28;20089;-79
2023/09/07 07:56:03;;;;;;;1999.90;999.90;;;;;;;;;;5083421;28;20040;-80
2023/09/07 07:58:31;;;;;;;1999.90;999.90;;;;;;;;;;5081470;28;20052;-78
2023/09/07 08:00:58;;;;;;;1999.90;999.90;;;;;;;;;;5082640;28;20059;-78
2023/09/07 08:03:25;;;;;;;1999.90;999.90;;;;;;;;;;5080290;28;20056;-79
2023/09/07 08:05:51;;;;;;;1999.90;999.90;;;;;;;;;;5082355;28;20040;-79
2023/09/07 08:08:18;;;;;;;1999.90;999.90;;;;;;;;;;5078205;28;20485;-78
2023/09/07 08:10:45;;;;;;;1999.90;999.90;;;;;;;;;;5081884;28;20059;-79
2023/09/07 08:13:13;;;;;;;1999.90;999.90;;;;;;;;;;5083271;28;20148;-79
2023/09/07 08:15:41;;;;;;;1999.90;999.90;;;;;;;;;;5079824;28;20052;-78
2023/09/07 08:18:08;;;;;;;1999.90;999.90;;;;;;;;;;5087208;28;20048;-80
2023/09/07 08:20:36;;;;;;;1999.90;999.90;;;;;;;;;;5088375;28;20125;-79
2023/09/07 08:23:07;;;;;;;1999.90;999.90;;;;;;;;;;5083892;28;20492;-80
2023/09/07 08:25:33;;;;;;;1999.90;999.90;;;;;;;;;;5084322;28;20458;-78
2023/09/07 08:28:00;;;;;;;1999.90;999.90;;;;;;;;;;5081235;28;20047;-82
2023/09/07 08:30:26;;;;;;;1999.90;999.90;;;;;;;;;;5083845;28;20045;-80
2023/09/07 08:32:55;;;;;;;1999.90;999.90;;;;;;;;;;5077750;28;20056;-79
2023/09/07 08:35:26;;;;;;;1999.90;999.90;;;;;;;;;;5080502;28;20044;-78
2023/09/07 08:37:53;;;;;;;1999.90;999.90;;;;;;;;;;5088712;28;20127;-79
2023/09/07 08:40:19;;;;;;;1999.90;999.90;;;;;;;;;;5084769;28;20050;-79
2023/09/07 08:42:46;;;;;;;1999.90;999.90;;;;;;;;;;5080493;28;20048;-79
2023/09/07 08:45:15;;;;;;;1999.90;999.90;;;;;;;;;;5082472;28;20468;-79
2023/09/07 08:47:42;;;;;;;1999.90;999.90;;;;;;;;;;5085113;28;20127;-79
2023/09/07 08:50:11;;;;;;;1999.90;999.90;;;;;;;;;;5078023;28;20071;-80
2023/09/07 08:52:38;;;;;;;1999.90;999.90;;;;;;;;;;5075057;28;20706;-79
2023/09/07 08:55:05;;;;;;;1999.90;999.90;;;;;;;;;;5080737;28;20127;-78
2023/09/07 08:57:32;;;;;;;1999.90;999.90;;;;;;;;;;5088557;28;20050;-79
2023/09/07 08:59:59;;;;;;;1999.90;999.90;;;;;;;;;;5082780;28;20090;-79
2023/09/07 09:02:25;;;;;;;1999.90;999.90;;;;;;;;;;5074563;28;20063;-80
2023/09/07 09:04:53;;;;;;;1999.90;999.90;;;;;;;;;;5086690;28;20390;-78
2023/09/07 09:07:21;;;;;;;1999.90;999.90;;;;;;;;;;5087732;28;20127;-77
2023/09/07 09:09:48;;;;;;;1999.90;999.90;;;;;;;;;;5082512;28;20484;-77
2023/09/07 09:12:14;;;;;;;1999.90;999.90;;;;;;;;;;5079667;28;20092;-77
2023/09/07 09:14:43;;;;;;;1999.90;999.90;;;;;;;;;;5079194;28;20047;-78
2023/09/07 09:17:12;;;;;;;1999.90;999.90;;;;;;;;;;5082382;28;20048;-78
2023/09/07 09:19:39;;;;;;;1999.90;999.90;;;;;;;;;;5080672;28;20492;-78
2023/09/07 09:22:05;;;;;;;1999.90;999.90;;;;;;;;;;5081224;28;20047;-78
2023/09/07 09:24:34;;;;;;;1999.90;999.90;;;;;;;;;;5080760;28;20049;-78
2023/09/07 09:27:01;;;;;;;1999.90;999.90;;;;;;;;;;5082275;28;20044;-84
2023/09/07 09:29:27;;;;;;;1999.90;999.90;;;;;;;;;;5086572;28;20071;-78
2023/09/07 09:31:54;;;;;;;1999.90;999.90;;;;;;;;;;5079999;28;20051;-78
2023/09/07 09:34:21;;;;;;;1999.90;999.90;;;;;;;;;;5081015;28;20043;-78
2023/09/07 09:36:48;;;;;;;1999.90;999.90;;;;;;;;;;5083336;28;20056;-79
2023/09/07 09:39:23;;;;;;;1999.90;999.90;;;;;;;;;;5076290;28;20381;-78
2023/09/07 09:41:51;;;;;;;1999.90;999.90;;;;;;;;;;5086963;28;20036;-82
2023/09/07 09:44:18;;;;;;;1999.90;999.90;;;;;;;;;;5083474;28;20055;-80
2023/09/07 09:46:44;;;;;;;1999.90;999.90;;;;;;;;;;5081580;28;20067;-77
2023/09/07 09:49:13;;;;;;;1999.90;999.90;;;;;;;;;;5085022;28;20510;-78
2023/09/07 09:51:40;;;;;;;1999.90;999.90;;;;;;;;;;5081376;28;20462;-79
2023/09/07 09:54:07;;;;;;;1999.90;999.90;;;;;;;;;;5084580;28;20055;-80
2023/09/07 09:56:34;;;;;;;1999.90;999.90;;;;;;;;;;5081881;28;20070;-79
2023/09/07 09:59:02;;;;;;;1999.90;999.90;;;;;;;;;;5077994;28;20045;-78
2023/09/07 10:01:29;;;;;;;1999.90;999.90;;;;;;;;;;5078421;28;20062;-80
2023/09/07 10:03:56;;;;;;;1999.90;999.90;;;;;;;;;;5079187;28;20102;-79
2023/09/07 10:06:25;;;;;;;1999.90;999.90;;;;;;;;;;5077242;28;20053;-78
2023/09/07 10:08:54;;;;;;;1999.90;999.90;;;;;;;;;;5088492;28;20083;-77
2023/09/07 10:11:27;;;;;;;1999.90;999.90;;;;;;;;;;5083221;28;20056;-79
2023/09/07 10:13:58;;;;;;;1999.90;999.90;;;;;;;;;;5082661;28;20056;-78
2023/09/07 10:16:27;;;;;;;1999.90;999.90;;;;;;;;;;5080738;28;20052;-78
2023/09/07 10:18:54;;;;;;;1999.90;999.90;;;;;;;;;;5079498;28;20045;-78
2023/09/07 10:21:24;;;;;;;1999.90;999.90;;;;;;;;;;5076083;28;20396;-78
2023/09/07 10:23:52;;;;;;;1999.90;999.90;;;;;;;;;;5078741;28;20051;-79
2023/09/07 10:26:20;;;;;;;1999.90;999.90;;;;;;;;;;5082686;28;20063;-79
2023/09/07 10:28:47;;;;;;;1999.90;999.90;;;;;;;;;;5083262;28;20059;-79
2023/09/07 10:31:15;;;;;;;1999.90;999.90;;;;;;;;;;5082395;28;20452;-80
2023/09/07 10:33:43;;;;;;;1999.90;999.90;;;;;;;;;;5082343;28;20788;-78
2023/09/07 10:36:22;;;;;;;1999.90;999.90;;;;;;;;;;5080483;28;20044;-80
2023/09/07 10:38:49;;;;;;;1999.90;999.90;;;;;;;;;;5082094;28;20404;-83
2023/09/07 10:41:15;;;;;;;1999.90;999.90;;;;;;;;;;5080273;28;20079;-78
2023/09/07 10:43:48;;;;;;;1999.90;999.90;;;;;;;;;;5077339;28;20047;-78
2023/09/07 10:46:15;;;;;;;1999.90;999.90;;;;;;;;;;5079561;28;20049;-79
2023/09/07 10:48:43;;;;;;;1999.90;999.90;;;;;;;;;;5078272;28;20041;-78
2023/09/07 10:51:09;;;;;;;1999.90;999.90;;;;;;;;;;5085354;28;20052;-83
2023/09/07 10:53:36;;;;;;;1999.90;999.90;;;;;;;;;;5086215;28;20169;-78
2023/09/07 10:56:05;;;;;;;1999.90;999.90;;;;;;;;;;5086261;28;20460;-79
2023/09/07 10:58:33;;;;;;;1999.90;999.90;;;;;;;;;;5076435;28;20048;-81
2023/09/07 11:01:00;;;;;;;1999.90;999.90;;;;;;;;;;5074422;28;20044;-78
2023/09/07 11:03:28;;;;;;;1999.90;999.90;;;;;;;;;;5080317;28;20063;-79
2023/09/07 11:05:57;;;;;;;1999.90;999.90;;;;;;;;;;5089534;28;20044;-79
2023/09/07 11:08:24;;;;;;;1999.90;999.90;;;;;;;;;;5081224;28;20051;-79
2023/09/07 11:10:51;;;;;;;1999.90;999.90;;;;;;;;;;5083534;28;20040;-80
2023/09/07 11:13:18;;;;;;;1999.90;999.90;;;;;;;;;;5087383;28;20048;-79
2023/09/07 11:15:44;;;;;;;1999.90;999.90;;;;;;;;;;5081707;28;20500;-78
2023/09/07 11:18:11;;;;;;;1999.90;999.90;;;;;;;;;;5084268;28;20550;-78
2023/09/07 11:20:42;;;;;;;1999.90;999.90;;;;;;;;;;5081865;28;20051;-80
2023/09/07 11:23:11;;;;;;;1999.90;999.90;;;;;;;;;;5083360;28;20048;-78
2023/09/07 11:25:39;;;;;;;1999.90;999.90;;;;;;;;;;5085368;28;20058;-82
2023/09/07 11:28:06;;;;;;;1999.90;999.90;;;;;;;;;;5079133;28;20044;-78
2023/09/07 11:30:33;;;;;;;1999.90;999.90;;;;;;;;;;5089124;28;20062;-79
2023/09/07 11:33:04;;;;;;;1999.90;999.90;;;;;;;;;;5083161;28;20124;-79
2023/09/07 11:35:32;;;;;;;1999.90;999.90;;;;;;;;;;5082007;28;20138;-79
2023/09/07 11:38:02;;;;;;;1999.90;999.90;;;;;;;;;;5083665;28;20067;-81
2023/09/07 11:40:31;;;;;;;1999.90;999.90;;;;;;;;;;5089026;28;20036;-78
2023/09/07 11:42:58;;;;;;;1999.90;999.90;;;;;;;;;;5081262;28;20063;-78
2023/09/07 11:45:24;;;;;;;1999.90;999.90;;;;;;;;;;5082945;28;20044;-82
2023/09/07 11:47:51;;;;;;;1999.90;999.90;;;;;;;;;;5084127;28;20075;-79
2023/09/07 11:50:18;;;;;;;1999.90;999.90;;;;;;;;;;5088868;28;20051;-79
2023/09/07 11:52:45;;;;;;;1999.90;999.90;;;;;;;;;;5089082;28;20044;-79
2023/09/07 11:55:11;;;;;;;1999.90;999.90;;;;;;;;;;5087128;28;20425;-78
2023/09/07 11:57:40;;;;;;;1999.90;999.90;;;;;;;;;;5084020;28;20488;-79
2023/09/07 12:00:10;;;;;;;1999.90;999.90;;;;;;;;;;5088023;28;20052;-78
2023/09/07 12:02:37;;;;;;;1999.90;999.90;;;;;;;;;;5087244;28;20079;-78
2023/09/07 12:05:04;;;;;;;1999.90;999.90;;;;;;;;;;5081495;28;20048;-78
2023/09/07 12:07:31;;;;;;;1999.90;999.90;;;;;;;;;;5081873;28;20049;-81
2023/09/07 12:09:57;;;;;;;1999.90;999.90;;;;;;;;;;5077072;28;20132;-79
2023/09/07 12:12:24;;;;;;;1999.90;999.90;;;;;;;;;;5078949;28;20458;-78
2023/09/07 12:14:52;;;;;;;1999.90;999.90;;;;;;;;;;5087557;28;20493;-81
2023/09/07 12:17:19;;;;;;;1999.90;999.90;;;;;;;;;;5086527;28;20044;-78
2023/09/07 12:19:46;;;;;;;1999.90;999.90;;;;;;;;;;5085523;28;20051;-78
2023/09/07 12:22:18;;;;;;;1999.90;999.90;;;;;;;;;;5079182;28;20793;-83
2023/09/07 12:24:44;;;;;;;1999.90;999.90;;;;;;;;;;5079895;28;20041;-79
2023/09/07 12:27:11;;;;;;;1999.90;999.90;;;;;;;;;;5082568;28;20049;-78
2023/09/07 12:29:37;;;;;;;1999.90;999.90;;;;;;;;;;5087595;28;20054;-79
2023/09/07 12:32:06;;;;;;;1999.90;999.90;;;;;;;;;;5075371;28;20044;-78
2023/09/07 12:34:33;;;;;;;1999.90;999.90;;;;;;;;;;5082242;28;20048;-78
2023/09/07 12:36:59;;;;;;;1999.90;999.90;;;;;;;;;;5088690;28;20050;-80
2023/09/07 12:39:26;;;;;;;1999.90;999.90;;;;;;;;;;5081230;28;20052;-79
2023/09/07 12:41:52;;;;;;;1999.90;999.90;;;;;;;;;;5082597;28;20417;-78
2023/09/07 12:44:20;;;;;;;1999.90;999.90;;;;;;;;;;5082908;28;20054;-79
2023/09/07 12:46:47;;;;;;;1999.90;999.90;;;;;;;;;;5075992;28;20045;-78
2023/09/07 12:49:15;;;;;;;1999.90;999.90;;;;;;;;;;5080546;28;20048;-78
2023/09/07 12:51:41;;;;;;;1999.90;999.90;;;;;;;;;;5077235;28;20440;-79
2023/09/07 12:54:08;;;;;;;1999.90;999.90;;;;;;;;;;5082149;28;20128;-79
2023/09/07 12:56:35;;;;;;;1999.90;999.90;;;;;;;;;;5086221;28;20058;-78
2023/09/07 12:59:03;;;;;;;1999.90;999.90;;;;;;;;;;5087379;28;20049;-79
2023/09/07 13:01:30;;;;;;;1999.90;999.90;;;;;;;;;;5080980;28;20409;-78
2023/09/07 13:03:57;;;;;;;1999.90;999.90;;;;;;;;;;5090570;28;20091;-80
2023/09/07 13:06:25;;;;;;;1999.90;999.90;;;;;;;;;;5079809;28;20054;-79
2023/09/07 13:08:51;;;;;;;1999.90;999.90;;;;;;;;;;5077890;28;20151;-79
2023/09/07 13:11:18;;;;;;;1999.90;999.90;;;;;;;;;;5081596;28;20063;-79
2023/09/07 13:13:44;;;;;;;1999.90;999.90;;;;;;;;;;5093439;28;20044;-80
2023/09/07 13:16:11;;;;;;;1999.90;999.90;;;;;;;;;;5083381;28;20485;-78
2023/09/07 13:18:38;;;;;;;1999.90;999.90;;;;;;;;;;5086201;28;20484;-78
2023/09/07 13:21:05;;;;;;;1999.90;999.90;;;;;;;;;;5093156;28;20048;-78
2023/09/07 13:23:33;;;;;;;1999.90;999.90;;;;;;;;;;5084145;28;20051;-78
2023/09/07 13:26:00;;;;;;;1999.90;999.90;;;;;;;;;;5085337;28;20040;-78
2023/09/07 13:28:26;;;;;;;1999.90;999.90;;;;;;;;;;5084983;28;20502;-78
2023/09/07 13:30:53;;;;;;;1999.90;999.90;;;;;;;;;;5086054;28;20050;-78
2023/09/07 13:33:20;;;;;;;1999.90;999.90;;;;;;;;;;5075646;28;20130;-77
2023/09/07 13:35:46;;;;;;;1999.90;999.90;;;;;;;;;;5081971;28;20050;-79
2023/09/07 13:38:13;;;;;;;1999.90;999.90;;;;;;;;;;5083980;28;20051;-79
2023/09/07 13:40:41;;;;;;;1999.90;999.90;;;;;;;;;;5078054;28;20050;-79
2023/09/07 13:43:08;;;;;;;1999.90;999.90;;;;;;;;;;5079796;28;20055;-78
2023/09/07 13:45:34;;;;;;;1999.90;999.90;;;;;;;;;;5081533;28;20055;-78